createdAt,value
2019-05-16T00:00:36.552Z,10.66
2019-05-16T00:03:08.342Z,10.97
2019-05-16T00:05:50.812Z,10.76
2019-05-16T00:08:13.277Z,10.72
2019-05-16T00:10:44.731Z,10.62
2019-05-16T00:13:18.539Z,10.67
2019-05-16T00:15:49.811Z,10.58
2019-05-16T00:18:20.770Z,10.49
2019-05-16T00:20:52.592Z,10.51
2019-05-16T00:23:24.742Z,10.55
2019-05-16T00:25:58.623Z,10.38
2019-05-16T00:28:29.487Z,10.38
2019-05-16T00:31:01.423Z,10.46
2019-05-16T00:33:33.696Z,10.44
2019-05-16T00:36:06.782Z,10.41
2019-05-16T00:38:39.056Z,10.26
2019-05-16T00:41:10.938Z,10.31
2019-05-16T00:43:42.321Z,10.24
2019-05-16T00:46:14.327Z,10.35
2019-05-16T00:48:48.567Z,10.30
2019-05-16T00:51:20.099Z,10.40
2019-05-16T00:53:52.053Z,10.17
2019-05-16T00:56:23.810Z,10.24
2019-05-16T00:58:58.716Z,10.12
2019-05-16T01:01:30.300Z,10.16
2019-05-16T01:04:01.875Z,10.22
2019-05-16T01:06:33.196Z,10.21
2019-05-16T01:09:08.657Z,10.13
2019-05-16T01:11:41.020Z,10.12
2019-05-16T01:14:12.851Z,10.08
2019-05-16T01:16:44.890Z,10.07
2019-05-16T01:19:18.552Z,10.12
2019-05-16T01:21:49.672Z,10.25
2019-05-16T01:24:21.218Z,10.13
2019-05-16T01:26:53.306Z,10.18
2019-05-16T01:29:25.155Z,10.23
2019-05-16T01:31:59.016Z,10.19
2019-05-16T01:34:30.803Z,10.36
2019-05-16T01:37:02.691Z,10.31
2019-05-16T01:39:34.236Z,10.20
2019-05-16T01:42:07.840Z,10.21
2019-05-16T01:44:39.178Z,10.18
2019-05-16T01:47:10.532Z,10.17
2019-05-16T01:49:42.433Z,10.22
2019-05-16T01:52:14.247Z,10.15
2019-05-16T01:54:47.982Z,10.21
2019-05-16T01:57:19.323Z,10.23
2019-05-16T01:59:50.847Z,10.03
2019-05-16T02:02:22.614Z,10.15
2019-05-16T02:04:54.640Z,10.09
2019-05-16T02:07:28.359Z,10.14
2019-05-16T02:10:01.058Z,10.16
2019-05-16T02:12:33.038Z,10.20
2019-05-16T02:15:04.782Z,10.35
2019-05-16T02:17:38.379Z,10.30
2019-05-16T02:20:09.509Z,10.06
2019-05-16T02:22:41.562Z,9.96
2019-05-16T02:25:13.356Z,9.97
2019-05-16T02:27:45.301Z,9.93
2019-05-16T02:30:16.826Z,9.86
2019-05-16T02:32:51.910Z,9.94
2019-05-16T02:35:22.256Z,10.03
2019-05-16T02:37:55.391Z,9.96
2019-05-16T02:40:27.150Z,9.83
2019-05-16T02:43:01.750Z,9.77
2019-05-16T02:45:33.013Z,9.87
2019-05-16T02:48:04.346Z,9.90
2019-05-16T02:50:35.872Z,9.88
2019-05-16T02:53:07.489Z,9.86
2019-05-16T02:55:41.063Z,9.91
2019-05-16T02:58:12.619Z,10.01
2019-05-16T03:00:44.308Z,9.94
2019-05-16T03:03:15.543Z,9.89
2019-05-16T03:05:50.582Z,9.93
2019-05-16T03:08:21.478Z,9.86
2019-05-16T03:10:54.287Z,9.99
2019-05-16T03:13:30.884Z,9.87
2019-05-16T03:16:02.481Z,10.02
2019-05-16T03:18:34.892Z,9.83
2019-05-16T03:21:11.167Z,9.94
2019-05-16T03:23:42.230Z,9.86
2019-05-16T03:26:14.267Z,9.88
2019-05-16T03:28:45.771Z,9.93
2019-05-16T03:31:23.737Z,9.97
2019-05-16T03:33:58.739Z,9.89
2019-05-16T03:36:25.730Z,9.79
2019-05-16T03:39:01.101Z,9.88
2019-05-16T03:41:31.029Z,9.76
2019-05-16T03:44:02.673Z,9.72
2019-05-16T03:46:34.750Z,9.70
2019-05-16T03:49:05.940Z,9.73
2019-05-16T03:51:37.803Z,9.95
2019-05-16T03:54:12.465Z,9.87
2019-05-16T03:56:43.671Z,10.02
2019-05-16T03:59:14.727Z,9.79
2019-05-16T04:01:46.543Z,9.82
2019-05-16T04:04:20.924Z,9.89
2019-05-16T04:06:51.820Z,9.81
2019-05-16T04:09:23.666Z,9.76
2019-05-16T04:11:55.238Z,9.84
2019-05-16T04:14:30.694Z,9.79
2019-05-16T04:17:01.809Z,9.84
2019-05-16T04:19:33.466Z,9.82
2019-05-16T04:22:05.342Z,9.81
2019-05-16T04:24:36.847Z,9.80
2019-05-16T04:27:11.764Z,9.83
2019-05-16T04:29:42.206Z,9.87
2019-05-16T04:32:13.807Z,9.52
2019-05-16T04:34:45.829Z,9.51
2019-05-16T04:37:17.711Z,9.55
2019-05-16T04:39:50.596Z,9.48
2019-05-16T04:42:25.213Z,9.58
2019-05-16T04:45:01.388Z,9.43
2019-05-16T04:47:33.675Z,9.46
2019-05-16T04:50:05.209Z,9.66
2019-05-16T04:52:37.219Z,9.75
2019-05-16T04:55:11.844Z,9.62
2019-05-16T04:57:42.657Z,9.43
2019-05-16T05:00:16.095Z,9.39
2019-05-16T05:02:47.976Z,9.64
2019-05-16T05:05:21.496Z,9.51
2019-05-16T05:07:52.936Z,9.54
2019-05-16T05:10:25.051Z,9.32
2019-05-16T05:12:56.840Z,9.43
2019-05-16T05:15:30.627Z,9.14
2019-05-16T05:18:02.005Z,9.21
2019-05-16T05:20:34.032Z,9.16
2019-05-16T05:23:06.323Z,9.31
2019-05-16T05:25:40.392Z,9.17
2019-05-16T05:28:13.536Z,9.26
2019-05-16T05:30:45.695Z,9.35
2019-05-16T05:33:21.149Z,9.33
2019-05-16T05:35:51.664Z,9.17
2019-05-16T05:38:24.459Z,9.20
2019-05-16T05:40:56.609Z,9.14
2019-05-16T05:43:30.295Z,8.98
2019-05-16T05:46:01.550Z,8.88
2019-05-16T05:48:33.525Z,8.93
2019-05-16T05:51:05.405Z,8.86
2019-05-16T05:53:36.732Z,8.74
2019-05-16T05:56:11.368Z,8.80
2019-05-16T05:58:41.288Z,8.83
2019-05-16T06:01:12.926Z,8.88
2019-05-16T06:03:44.725Z,8.85
2019-05-16T06:06:16.236Z,9.03
2019-05-16T06:08:50.043Z,8.79
2019-05-16T06:11:20.989Z,8.76
2019-05-16T06:13:53.108Z,8.74
2019-05-16T06:16:25.100Z,8.75
2019-05-16T06:18:56.838Z,8.76
2019-05-16T06:21:33.267Z,8.61
2019-05-16T06:24:03.576Z,8.57
2019-05-16T06:26:35.628Z,8.61
2019-05-16T06:29:10.169Z,8.63
2019-05-16T06:31:41.067Z,8.48
2019-05-16T06:34:15.271Z,8.21
2019-05-16T06:36:46.252Z,8.45
2019-05-16T06:39:19.952Z,8.48
2019-05-16T06:41:51.757Z,8.45
2019-05-16T06:44:23.974Z,8.38
2019-05-16T06:47:09.646Z,8.47
2019-05-16T06:49:30.408Z,8.49
2019-05-16T06:52:02.100Z,8.44
2019-05-16T06:54:33.884Z,8.41
2019-05-16T06:57:06.263Z,8.41
2019-05-16T06:59:37.718Z,8.30
2019-05-16T07:02:15.189Z,8.38
2019-05-16T07:04:44.577Z,8.41
2019-05-16T07:07:17.459Z,8.40
2019-05-16T07:09:59.979Z,8.47
2019-05-16T07:12:22.817Z,8.18
2019-05-16T07:14:54.365Z,8.26
2019-05-16T07:17:26.535Z,8.16
2019-05-16T07:20:00.726Z,8.10
2019-05-16T07:22:33.125Z,8.19
2019-05-16T07:25:04.293Z,8.26
2019-05-16T07:27:35.988Z,8.14
2019-05-16T07:30:10.588Z,8.16
2019-05-16T07:32:41.815Z,8.05
2019-05-16T07:35:14.366Z,8.32
2019-05-16T07:37:46.057Z,8.15
2019-05-16T07:40:23.648Z,8.24
2019-05-16T07:42:52.002Z,8.12
2019-05-16T07:45:23.845Z,7.99
2019-05-16T07:47:55.721Z,8.24
2019-05-16T07:50:30.053Z,8.18
2019-05-16T07:53:01.461Z,8.30
2019-05-16T07:55:32.957Z,8.21
2019-05-16T07:58:04.276Z,8.23
2019-05-16T08:00:49.879Z,8.30
2019-05-16T08:03:10.551Z,8.24
2019-05-16T08:05:42.109Z,8.21
2019-05-16T08:08:14.020Z,8.06
2019-05-16T08:10:46.828Z,8.20
2019-05-16T08:13:21.234Z,7.88
2019-05-16T08:15:52.377Z,7.91
2019-05-16T08:18:24.165Z,8.18
2019-05-16T08:20:55.992Z,8.18
2019-05-16T08:23:30.410Z,7.98
2019-05-16T08:26:01.751Z,8.20
2019-05-16T08:28:33.869Z,8.19
2019-05-16T08:31:05.730Z,7.90
2019-05-16T08:33:41.287Z,8.23
2019-05-16T08:36:11.984Z,8.13
2019-05-16T08:38:43.758Z,8.18
2019-05-16T08:41:17.338Z,8.30
2019-05-16T08:43:53.386Z,8.43
2019-05-16T08:46:24.372Z,8.34
2019-05-16T08:48:56.169Z,8.35
2019-05-16T08:51:32.719Z,8.51
2019-05-16T08:54:01.977Z,8.27
2019-05-16T08:56:34.094Z,8.24
2019-05-16T08:59:05.063Z,8.09
2019-05-16T09:01:36.380Z,8.22
2019-05-16T09:04:11.705Z,8.24
2019-05-16T09:06:42.449Z,8.37
2019-05-16T09:09:29.663Z,8.39
2019-05-16T09:11:48.843Z,8.55
2019-05-16T09:14:20.340Z,8.58
2019-05-16T09:16:51.818Z,8.69
2019-05-16T09:19:23.030Z,8.72
2019-05-16T09:21:57.832Z,8.79
2019-05-16T09:24:27.762Z,8.84
2019-05-16T09:26:59.789Z,8.82
2019-05-16T09:29:31.380Z,8.91
2019-05-16T09:32:12.645Z,8.89
2019-05-16T09:34:37.938Z,8.90
2019-05-16T09:37:09.417Z,8.95
2019-05-16T09:39:40.987Z,8.83
2019-05-16T09:42:13.051Z,8.83
2019-05-16T09:44:47.490Z,8.80
2019-05-16T09:47:19.184Z,8.85
2019-05-16T09:49:50.979Z,8.95
2019-05-16T09:52:22.888Z,8.91
2019-05-16T09:54:54.390Z,9.01
2019-05-16T09:57:27.786Z,8.81
2019-05-16T09:59:59.282Z,8.93
2019-05-16T10:02:31.123Z,8.99
2019-05-16T10:05:03.228Z,9.13
2019-05-16T10:07:38.767Z,9.07
2019-05-16T10:10:10.079Z,9.04
2019-05-16T10:12:41.302Z,9.06
2019-05-16T10:15:13.737Z,9.05
2019-05-16T10:17:47.609Z,9.00
2019-05-16T10:20:18.644Z,9.11
2019-05-16T10:22:50.794Z,9.19
2019-05-16T10:25:22.237Z,8.89
2019-05-16T10:27:53.607Z,9.09
2019-05-16T10:30:26.957Z,9.14
2019-05-16T10:33:00.856Z,9.10
2019-05-16T10:35:32.251Z,8.96
2019-05-16T10:38:03.820Z,8.99
2019-05-16T10:40:36.867Z,9.01
2019-05-16T10:43:09.046Z,9.03
2019-05-16T10:45:41.006Z,8.95
2019-05-16T10:48:13.379Z,9.17
2019-05-16T10:50:47.458Z,9.07
2019-05-16T10:53:55.606Z,9.08
2019-05-16T10:55:51.376Z,9.13
2019-05-16T10:58:35.301Z,9.23
2019-05-16T11:01:24.443Z,9.19
2019-05-16T11:03:30.773Z,9.10
2019-05-16T11:06:06.021Z,9.20
2019-05-16T11:08:37.144Z,9.16
2019-05-16T11:11:09.979Z,9.08
2019-05-16T11:13:41.943Z,9.19
2019-05-16T11:16:13.610Z,9.19
2019-05-16T11:18:46.266Z,9.16
2019-05-16T11:21:19.299Z,8.94
2019-05-16T11:23:50.936Z,9.17
2019-05-16T11:26:22.306Z,9.14
2019-05-16T11:28:56.606Z,9.12
2019-05-16T11:31:27.392Z,8.96
2019-05-16T11:33:59.074Z,8.93
2019-05-16T11:36:31.007Z,9.08
2019-05-16T11:39:03.725Z,9.12
2019-05-16T11:41:35.962Z,9.08
2019-05-16T11:44:08.064Z,9.14
2019-05-16T11:46:39.690Z,9.25
2019-05-16T11:49:11.541Z,9.30
2019-05-16T11:51:43.240Z,9.36
2019-05-16T11:54:14.753Z,9.33
2019-05-16T11:56:46.818Z,9.47
2019-05-16T11:59:18.255Z,9.38
2019-05-16T12:01:50.445Z,9.31
2019-05-16T12:04:22.123Z,9.31
2019-05-16T12:06:53.711Z,9.35
2019-05-16T12:09:32.208Z,9.49
2019-05-16T12:12:03.862Z,9.69
2019-05-16T12:14:32.513Z,9.65
2019-05-16T12:17:04.271Z,9.71
2019-05-16T12:19:42.814Z,9.65
2019-05-16T12:22:09.364Z,9.65
2019-05-16T12:24:41.648Z,9.50
2019-05-16T12:27:13.821Z,9.52
2019-05-16T12:29:50.209Z,9.52
2019-05-16T12:32:18.390Z,9.56
2019-05-16T12:34:49.613Z,9.56
2019-05-16T12:37:20.872Z,9.46
2019-05-16T12:39:52.536Z,9.44
2019-05-16T12:42:26.917Z,9.50
2019-05-16T12:44:57.673Z,9.63
2019-05-16T12:47:29.603Z,9.65
2019-05-16T12:50:01.201Z,9.75
2019-05-16T12:52:32.877Z,9.65
2019-05-16T12:55:04.827Z,9.68
2019-05-16T12:57:38.285Z,9.64
2019-05-16T13:00:15.251Z,9.63
2019-05-16T13:02:47.116Z,9.66
2019-05-16T13:05:18.181Z,9.42
2019-05-16T13:07:50.049Z,9.52
2019-05-16T13:10:22.614Z,9.57
2019-05-16T13:12:57.981Z,9.67
2019-05-16T13:15:37.849Z,9.79
2019-05-16T13:18:08.863Z,9.59
2019-05-16T13:20:41.441Z,9.70
2019-05-16T13:23:14.892Z,9.73
2019-05-16T13:25:48.153Z,9.71
2019-05-16T13:28:19.989Z,9.71
2019-05-16T13:30:51.581Z,9.61
2019-05-16T13:33:24.238Z,9.64
2019-05-16T13:35:57.835Z,9.75
2019-05-16T13:38:29.366Z,9.81
2019-05-16T13:41:01.335Z,9.73
2019-05-16T13:43:32.687Z,9.81
2019-05-16T13:46:07.100Z,9.64
2019-05-16T13:48:39.261Z,9.77
2019-05-16T13:51:15.545Z,9.83
2019-05-16T13:53:47.032Z,9.73
2019-05-16T13:56:18.331Z,9.72
2019-05-16T13:58:49.708Z,9.78
2019-05-16T14:01:22.227Z,9.70
2019-05-16T14:03:54.321Z,9.70
2019-05-16T14:06:26.285Z,9.78
2019-05-16T14:08:58.445Z,9.86
2019-05-16T14:11:30.560Z,9.91
2019-05-16T14:14:04.805Z,9.85
2019-05-16T14:16:37.692Z,9.93
2019-05-16T14:19:09.984Z,10.04
2019-05-16T14:21:41.995Z,9.87
2019-05-16T14:24:13.717Z,9.99
2019-05-16T14:26:46.462Z,10.04
2019-05-16T14:29:18.080Z,10.06
2019-05-16T14:31:50.363Z,10.06
2019-05-16T14:34:21.991Z,10.06
2019-05-16T14:36:53.549Z,10.13
2019-05-16T14:39:28.309Z,10.09
2019-05-16T14:41:59.020Z,10.06
2019-05-16T14:44:30.757Z,10.23
2019-05-16T14:47:02.662Z,10.13
2019-05-16T14:49:37.220Z,10.24
2019-05-16T14:52:07.854Z,10.23
2019-05-16T14:54:39.457Z,10.18
2019-05-16T14:57:11.344Z,10.18
2019-05-16T14:59:42.878Z,9.99
2019-05-16T15:02:14.466Z,10.13
2019-05-16T15:04:49.446Z,10.13
2019-05-16T15:07:19.727Z,10.21
2019-05-16T15:09:51.618Z,10.19
2019-05-16T15:12:23.418Z,10.12
2019-05-16T15:14:58.685Z,10.14
2019-05-16T15:17:28.152Z,10.19
2019-05-16T15:19:59.715Z,10.16
2019-05-16T15:22:31.900Z,10.26
2019-05-16T15:25:03.571Z,10.26
2019-05-16T15:27:37.130Z,10.16
2019-05-16T15:30:09.364Z,10.20
2019-05-16T15:32:40.846Z,10.17
2019-05-16T15:35:12.716Z,10.30
2019-05-16T15:37:44.473Z,10.29
2019-05-16T15:40:17.725Z,10.37
2019-05-16T15:42:50.027Z,10.26
2019-05-16T15:45:35.630Z,10.32
2019-05-16T15:47:59.917Z,10.33
2019-05-16T15:50:31.890Z,10.38
2019-05-16T15:53:04.435Z,10.35
2019-05-16T15:55:36.403Z,10.41
2019-05-16T15:58:10.491Z,10.34
2019-05-16T16:00:47.472Z,10.42
2019-05-16T16:03:18.405Z,10.64
2019-05-16T16:05:49.802Z,10.32
2019-05-16T16:08:21.635Z,10.40
2019-05-16T16:10:53.573Z,10.39
2019-05-16T16:13:26.833Z,10.44
2019-05-16T16:15:58.548Z,10.47
2019-05-16T16:18:30.224Z,10.33
2019-05-16T16:21:02.034Z,10.39
2019-05-16T16:23:33.993Z,10.34
2019-05-16T16:26:12.464Z,10.35
2019-05-16T16:28:43.978Z,10.32
2019-05-16T16:31:16.962Z,10.50
2019-05-16T16:33:49.886Z,10.51
2019-05-16T16:36:21.652Z,10.65
2019-05-16T16:38:57.634Z,10.57
2019-05-16T16:41:29.549Z,10.44
2019-05-16T16:44:01.476Z,10.42
2019-05-16T16:46:32.590Z,10.46
2019-05-16T16:49:04.670Z,10.51
2019-05-16T16:51:37.442Z,10.36
2019-05-16T16:54:09.541Z,10.81
2019-05-16T16:56:41.725Z,10.80
2019-05-16T16:59:13.731Z,10.71
2019-05-16T17:01:46.554Z,10.60
2019-05-16T17:04:18.253Z,10.62
2019-05-16T17:06:50.287Z,10.61
2019-05-16T17:09:22.201Z,10.60
2019-05-16T17:11:54.179Z,10.63
2019-05-16T17:14:26.446Z,10.62
2019-05-16T17:16:57.937Z,10.63
2019-05-16T17:19:30.112Z,10.62
2019-05-16T17:22:13.740Z,10.78
2019-05-16T17:24:36.714Z,10.80
2019-05-16T17:27:08.788Z,10.91
2019-05-16T17:29:40.542Z,10.73
2019-05-16T17:32:13.688Z,10.61
2019-05-16T17:34:46.157Z,10.67
2019-05-16T17:37:18.042Z,10.63
2019-05-16T17:39:50.484Z,10.72
2019-05-16T17:42:22.153Z,10.62
2019-05-16T17:44:53.565Z,10.61
2019-05-16T17:47:26.282Z,10.68
2019-05-16T17:49:58.240Z,10.67
2019-05-16T17:52:29.601Z,10.63
2019-05-16T17:55:01.480Z,10.64
2019-05-16T17:57:37.151Z,10.50
2019-05-16T18:00:12.349Z,10.68
2019-05-16T18:02:43.363Z,10.61
2019-05-16T18:05:16.968Z,10.58
2019-05-16T18:07:48.329Z,10.67
2019-05-16T18:10:20.713Z,10.80
2019-05-16T18:12:52.672Z,10.77
2019-05-16T18:15:24.950Z,10.69
2019-05-16T18:17:56.632Z,10.68
2019-05-16T18:20:28.856Z,10.60
2019-05-16T18:23:00.938Z,10.63
2019-05-16T18:25:32.705Z,10.63
2019-05-16T18:28:04.248Z,10.62
2019-05-16T18:30:36.604Z,10.60
2019-05-16T18:33:10.307Z,10.57
2019-05-16T18:35:41.980Z,10.59
2019-05-16T18:38:14.564Z,10.57
2019-05-16T18:40:47.525Z,10.63
2019-05-16T18:43:21.425Z,10.65
2019-05-16T18:45:53.208Z,10.63
2019-05-16T18:48:27.268Z,10.58
2019-05-16T18:50:59.480Z,10.55
2019-05-16T18:53:30.841Z,10.55
2019-05-16T18:56:02.702Z,10.60
2019-05-16T18:58:37.030Z,10.57
2019-05-16T19:01:07.931Z,10.64
2019-05-16T19:03:39.859Z,10.53
2019-05-16T19:06:12.071Z,10.50
2019-05-16T19:08:44.739Z,10.60
2019-05-16T19:11:17.561Z,10.46
2019-05-16T19:13:49.609Z,10.64
2019-05-16T19:16:21.744Z,10.53
2019-05-16T19:18:53.649Z,10.46
2019-05-16T19:21:26.269Z,10.55
2019-05-16T19:23:59.187Z,10.62
2019-05-16T19:26:30.534Z,10.47
2019-05-16T19:29:02.377Z,10.47
2019-05-16T19:31:38.850Z,10.62
2019-05-16T19:34:09.080Z,10.54
2019-05-16T19:36:41.056Z,10.47
2019-05-16T19:39:12.587Z,10.50
2019-05-16T19:41:46.535Z,10.50
2019-05-16T19:44:17.885Z,10.50
2019-05-16T19:46:49.496Z,10.51
2019-05-16T19:49:21.825Z,10.61
2019-05-16T19:51:53.846Z,10.58
2019-05-16T19:54:26.973Z,10.63
2019-05-16T19:56:58.884Z,10.63
2019-05-16T19:59:30.756Z,10.72
2019-05-16T20:02:02.185Z,10.55
2019-05-16T20:04:33.971Z,10.61
2019-05-16T20:07:07.390Z,10.57
2019-05-16T20:09:40.564Z,10.45
2019-05-16T20:12:12.727Z,10.51
2019-05-16T20:14:44.253Z,10.47
2019-05-16T20:17:16.222Z,10.62
2019-05-16T20:19:48.654Z,10.63
2019-05-16T20:22:20.051Z,10.66
2019-05-16T20:24:51.998Z,10.66
2019-05-16T20:27:23.916Z,10.51
2019-05-16T20:29:56.400Z,10.50
2019-05-16T20:32:28.767Z,10.44
2019-05-16T20:35:00.937Z,10.47
2019-05-16T20:37:32.468Z,10.41
2019-05-16T20:40:03.868Z,10.51
2019-05-16T20:42:36.720Z,10.55
2019-05-16T20:45:09.361Z,10.45
2019-05-16T20:47:40.934Z,10.45
2019-05-16T20:50:12.725Z,10.76
2019-05-16T20:52:46.642Z,10.66
2019-05-16T20:55:18.401Z,10.55
2019-05-16T20:57:50.468Z,10.58
2019-05-16T21:00:22.457Z,10.57
2019-05-16T21:02:54.480Z,10.64
2019-05-16T21:05:26.847Z,10.49
2019-05-16T21:07:58.423Z,10.55
2019-05-16T21:10:29.669Z,10.47
2019-05-16T21:13:01.975Z,10.47
2019-05-16T21:15:33.733Z,10.58
2019-05-16T21:18:07.534Z,10.49
2019-05-16T21:20:39.280Z,10.51
2019-05-16T21:23:10.919Z,10.56
2019-05-16T21:25:43.054Z,10.54
2019-05-16T21:28:17.094Z,10.40
2019-05-16T21:30:48.096Z,10.41
2019-05-16T21:33:20.334Z,10.46
2019-05-16T21:35:52.578Z,10.45
2019-05-16T21:38:26.945Z,10.48
2019-05-16T21:40:58.407Z,10.39
2019-05-16T21:43:30.730Z,10.43
2019-05-16T21:46:02.842Z,10.39
2019-05-16T21:48:37.003Z,10.45
2019-05-16T21:51:09.008Z,10.64
2019-05-16T21:53:41.114Z,10.61
2019-05-16T21:56:13.282Z,10.55
2019-05-16T21:58:47.211Z,10.50
2019-05-16T22:01:20.440Z,10.46
2019-05-16T22:03:53.092Z,10.43
2019-05-16T22:06:24.713Z,10.32
2019-05-16T22:08:57.393Z,10.37
2019-05-16T22:11:29.899Z,10.41
2019-05-16T22:14:03.113Z,10.43
2019-05-16T22:16:37.131Z,10.52
2019-05-16T22:19:09.502Z,10.43
2019-05-16T22:21:41.356Z,10.41
2019-05-16T22:24:12.844Z,10.51
2019-05-16T22:26:46.666Z,10.48
2019-05-16T22:29:21.291Z,10.46
2019-05-16T22:31:53.173Z,10.48
2019-05-16T22:34:26.461Z,10.38
2019-05-16T22:36:58.510Z,10.47
2019-05-16T22:39:30.738Z,10.48
2019-05-16T22:42:02.631Z,10.34
2019-05-16T22:44:37.060Z,10.47
2019-05-16T22:47:08.003Z,10.48
2019-05-16T22:49:40.427Z,10.47
2019-05-16T22:52:12.275Z,10.53
2019-05-16T22:54:44.398Z,10.63
2019-05-16T22:57:17.641Z,10.56
2019-05-16T22:59:49.765Z,10.59
2019-05-16T23:02:21.692Z,10.69
2019-05-16T23:04:53.546Z,10.64
2019-05-16T23:07:27.424Z,10.55
2019-05-16T23:09:59.122Z,10.53
2019-05-16T23:12:31.511Z,10.62
2019-05-16T23:15:03.220Z,10.68
2019-05-16T23:17:37.320Z,10.65
2019-05-16T23:20:08.246Z,10.67
2019-05-16T23:22:40.138Z,10.65
2019-05-16T23:25:11.636Z,10.55
2019-05-16T23:27:43.946Z,10.75
2019-05-16T23:30:16.545Z,10.61
2019-05-16T23:32:49.528Z,10.68
2019-05-16T23:35:21.327Z,10.50
2019-05-16T23:37:53.170Z,10.54
2019-05-16T23:40:25.020Z,10.66
2019-05-16T23:42:56.953Z,10.60
2019-05-16T23:45:28.347Z,10.69
2019-05-16T23:48:00.372Z,10.62
2019-05-16T23:50:32.278Z,10.64
2019-05-16T23:53:04.219Z,10.69
2019-05-16T23:55:37.113Z,10.59
2019-05-16T23:58:09.783Z,10.63
